Time;durP1;ratioP1;P1;durP2;ratioP2;P2;SDS_P1;SDS_P2;PMS_P1;PMS_P2;Temp;Humidity;BMP_temperature;BMP_pressure;BME280_temperature;BME280_humidity;BME280_pressure;Samples;Min_cycle;Max_cycle;Signal;HPM_P1;HPM_P2
2023/04/17 00:00:09;;;;;;;8.73;6.43;;;10.70;89.60;;;;;;5061725;28;20128;-55
2023/04/17 00:02:38;;;;;;;9.18;6.03;;;10.70;89.50;;;;;;5071422;28;20367;-55
2023/04/17 00:05:05;;;;;;;8.65;6.15;;;10.70;89.60;;;;;;5068560;28;20033;-56
2023/04/17 00:07:33;;;;;;;9.15;5.35;;;10.70;89.30;;;;;;5071002;28;20032;-57
2023/04/17 00:09:58;;;;;;;8.10;5.43;;;10.70;88.80;;;;;;5071019;28;20060;-55
2023/04/17 00:12:24;;;;;;;8.00;6.20;;;10.60;88.60;;;;;;5071404;28;20533;-55
2023/04/17 00:14:49;;;;;;;7.43;5.70;;;10.60;88.40;;;;;;5074206;28;20021;-56
2023/04/17 00:17:15;;;;;;;9.02;5.85;;;10.60;88.20;;;;;;5069677;28;20016;-56
2023/04/17 00:19:41;;;;;;;9.30;6.10;;;10.60;87.80;;;;;;5069893;28;20471;-57
2023/04/17 00:22:06;;;;;;;7.47;5.75;;;10.60;87.30;;;;;;5077336;28;20432;-56
2023/04/17 00:24:32;;;;;;;8.40;5.35;;;10.60;86.80;;;;;;5068459;28;20031;-57
2023/04/17 00:26:57;;;;;;;7.38;5.57;;;10.60;86.70;;;;;;5069034;28;20075;-57
2023/04/17 00:29:23;;;;;;;8.27;5.75;;;10.60;86.30;;;;;;5070933;28;20037;-57
2023/04/17 00:31:49;;;;;;;7.97;5.13;;;10.60;86.20;;;;;;5070932;28;20025;-57
2023/04/17 00:34:14;;;;;;;6.68;5.45;;;10.60;85.70;;;;;;5065879;28;20025;-56
2023/04/17 00:36:40;;;;;;;7.35;6.00;;;10.60;85.60;;;;;;5073436;28;20063;-55
2023/04/17 00:39:05;;;;;;;8.10;5.82;;;10.50;85.20;;;;;;5073457;28;20112;-55
2023/04/17 00:41:31;;;;;;;10.27;5.97;;;10.50;85.10;;;;;;5074493;28;20119;-55
2023/04/17 00:43:57;;;;;;;10.55;5.80;;;10.50;85.10;;;;;;5072447;28;20052;-58
2023/04/17 00:46:22;;;;;;;8.07;5.50;;;10.50;84.90;;;;;;5074063;28;20679;-56
2023/04/17 00:48:48;;;;;;;6.43;4.85;;;10.50;84.50;;;;;;5074282;28;20024;-57
2023/04/17 00:51:14;;;;;;;5.90;4.60;;;10.50;84.10;;;;;;5079544;28;20024;-56
2023/04/17 00:53:40;;;;;;;6.45;4.72;;;10.50;83.80;;;;;;5072753;28;20474;-54
2023/04/17 00:56:07;;;;;;;8.70;6.75;;;10.50;83.60;;;;;;5073972;28;20037;-58
2023/04/17 00:58:34;;;;;;;6.55;5.00;;;10.50;83.60;;;;;;5072435;28;20348;-56
2023/04/17 01:01:00;;;;;;;7.38;4.85;;;10.50;83.70;;;;;;5073699;28;20017;-57
2023/04/17 01:03:28;;;;;;;7.07;4.63;;;10.50;83.60;;;;;;5073381;28;20456;-55
2023/04/17 01:05:54;;;;;;;6.32;4.03;;;10.50;83.30;;;;;;5060983;28;20021;-56
2023/04/17 01:08:21;;;;;;;7.15;4.30;;;10.50;82.70;;;;;;5068907;28;20028;-57
2023/04/17 01:10:47;;;;;;;5.55;3.63;;;10.50;82.50;;;;;;5074119;28;20028;-56
2023/04/17 01:13:13;;;;;;;5.95;4.10;;;10.50;82.20;;;;;;5069131;28;20037;-56
2023/04/17 01:15:38;;;;;;;7.22;3.38;;;10.50;81.80;;;;;;5073535;28;20043;-61
2023/04/17 01:18:05;;;;;;;5.72;3.38;;;10.50;81.20;;;;;;5063173;28;20036;-61
2023/04/17 01:20:31;;;;;;;3.90;2.90;;;10.40;80.60;;;;;;5071314;28;20440;-62
2023/04/17 01:22:58;;;;;;;2.90;2.63;;;10.40;80.00;;;;;;5079637;28;20757;-62
2023/04/17 01:25:25;;;;;;;4.18;3.17;;;10.40;78.90;;;;;;5073704;28;20046;-61
2023/04/17 01:27:50;;;;;;;3.15;2.67;;;10.40;78.30;;;;;;5072715;28;20191;-61
2023/04/17 01:30:17;;;;;;;3.00;2.60;;;10.40;77.70;;;;;;5073379;28;20453;-62
2023/04/17 01:32:42;;;;;;;3.38;2.63;;;10.40;77.00;;;;;;5069700;28;20725;-62
2023/04/17 01:35:09;;;;;;;3.08;2.35;;;10.40;76.50;;;;;;5065785;28;20028;-61
2023/04/17 01:37:35;;;;;;;4.43;2.78;;;10.40;75.60;;;;;;5070274;28;20115;-62
2023/04/17 01:40:00;;;;;;;3.92;3.20;;;10.40;74.80;;;;;;5068468;28;20487;-62
2023/04/17 01:42:26;;;;;;;4.95;2.97;;;10.40;74.40;;;;;;5072161;28;20149;-62
2023/04/17 01:44:52;;;;;;;4.50;3.05;;;10.40;74.20;;;;;;5067695;28;20024;-61
2023/04/17 01:47:17;;;;;;;3.88;2.70;;;10.40;73.50;;;;;;5066518;28;20129;-62
2023/04/17 01:49:43;;;;;;;3.40;2.67;;;10.40;73.60;;;;;;5073171;28;20032;-62
2023/04/17 01:52:09;;;;;;;3.10;2.80;;;10.30;73.10;;;;;;5077809;28;20025;-61
2023/04/17 01:54:34;;;;;;;4.18;3.00;;;10.30;73.10;;;;;;5070369;28;20136;-61
2023/04/17 01:57:01;;;;;;;4.78;3.45;;;10.30;73.20;;;;;;5073166;28;20017;-61
2023/04/17 01:59:26;;;;;;;4.03;3.20;;;10.30;73.30;;;;;;5073051;28;20037;-61
2023/04/17 02:01:53;;;;;;;5.10;2.88;;;10.30;73.50;;;;;;5073090;28;20074;-61
2023/04/17 02:04:19;;;;;;;4.50;3.00;;;10.30;73.30;;;;;;5064140;28;20028;-61
2023/04/17 02:06:45;;;;;;;4.32;2.92;;;10.30;73.30;;;;;;5068739;28;20036;-62
2023/04/17 02:09:10;;;;;;;4.35;3.00;;;10.30;73.30;;;;;;5070968;28;20052;-61
2023/04/17 02:11:36;;;;;;;3.60;2.60;;;10.30;73.30;;;;;;5071883;28;20086;-61
2023/04/17 02:14:02;;;;;;;3.78;2.70;;;10.30;73.20;;;;;;5072586;28;20104;-61
2023/04/17 02:16:28;;;;;;;5.43;3.22;;;10.30;73.60;;;;;;5072466;28;20108;-61
2023/04/17 02:18:54;;;;;;;3.40;2.75;;;10.30;73.40;;;;;;5072759;28;20096;-61
2023/04/17 02:21:20;;;;;;;4.07;2.60;;;10.30;72.50;;;;;;5069604;28;20472;-62
2023/04/17 02:23:46;;;;;;;4.30;2.70;;;10.30;71.90;;;;;;5071370;28;20033;-62
2023/04/17 02:26:11;;;;;;;3.03;2.63;;;10.20;71.50;;;;;;5072631;28;20029;-62
2023/04/17 02:28:37;;;;;;;4.63;3.03;;;10.10;71.60;;;;;;5072422;28;20044;-61
2023/04/17 02:31:07;;;;;;;5.50;2.88;;;10.10;71.40;;;;;;5071959;28;20386;-62
2023/04/17 02:33:35;;;;;;;4.97;2.80;;;10.10;71.00;;;;;;5068852;28;20391;-61
2023/04/17 02:36:01;;;;;;;3.83;2.80;;;10.00;71.00;;;;;;5072376;28;20661;-62
2023/04/17 02:38:29;;;;;;;5.60;3.78;;;10.00;71.40;;;;;;5070991;28;20062;-61
2023/04/17 02:40:55;;;;;;;5.13;3.65;;;10.00;71.80;;;;;;5052670;28;20041;-63
2023/04/17 02:43:20;;;;;;;6.50;4.00;;;10.00;72.70;;;;;;5070900;28;20028;-63
2023/04/17 02:45:46;;;;;;;4.63;3.90;;;9.90;73.20;;;;;;5070557;28;20070;-63
2023/04/17 02:48:12;;;;;;;5.60;4.00;;;9.90;73.70;;;;;;5076852;28;20112;-63
2023/04/17 02:50:37;;;;;;;7.35;4.35;;;9.80;74.30;;;;;;5074402;28;20114;-64
2023/04/17 02:53:03;;;;;;;4.35;3.53;;;9.80;73.60;;;;;;5070503;28;20048;-61
2023/04/17 02:55:29;;;;;;;5.00;3.80;;;9.80;73.70;;;;;;5071772;28;20032;-61
2023/04/17 02:57:54;;;;;;;6.00;3.88;;;9.70;73.70;;;;;;5072124;28;20039;-61
2023/04/17 03:00:21;;;;;;;5.65;4.00;;;9.70;74.20;;;;;;5066811;28;20033;-62
2023/04/17 03:02:47;;;;;;;7.72;4.78;;;9.70;75.00;;;;;;5069741;28;20480;-60
2023/04/17 03:05:15;;;;;;;4.50;3.75;;;9.70;75.30;;;;;;5054758;28;20024;-61
2023/04/17 03:07:40;;;;;;;5.60;3.92;;;9.70;76.00;;;;;;5071901;28;20041;-62
2023/04/17 03:10:08;;;;;;;6.53;4.20;;;9.70;75.60;;;;;;5070370;28;20043;-61
2023/04/17 03:12:33;;;;;;;6.30;4.32;;;9.70;75.40;;;;;;5072465;28;20478;-62
2023/04/17 03:14:59;;;;;;;5.68;4.40;;;9.70;75.40;;;;;;5071693;28;20021;-61
2023/04/17 03:17:25;;;;;;;5.00;4.05;;;9.60;75.40;;;;;;5071976;28;20032;-61
2023/04/17 03:19:51;;;;;;;6.60;3.97;;;9.60;75.50;;;;;;5071303;28;20711;-61
2023/04/17 03:22:16;;;;;;;5.75;3.88;;;9.60;75.70;;;;;;5069524;28;20115;-61
2023/04/17 03:24:42;;;;;;;5.10;3.72;;;9.60;75.80;;;;;;5065258;28;20483;-62
2023/04/17 03:27:08;;;;;;;6.45;3.80;;;9.60;75.90;;;;;;5070735;28;20045;-61
2023/04/17 03:29:33;;;;;;;5.65;4.10;;;9.60;75.70;;;;;;5070672;28;20041;-61
2023/04/17 03:31:59;;;;;;;7.30;3.90;;;9.60;75.40;;;;;;5071087;28;20029;-61
2023/04/17 03:34:25;;;;;;;5.00;3.70;;;9.60;75.40;;;;;;5061724;28;20029;-61
2023/04/17 03:36:50;;;;;;;5.15;3.80;;;9.60;75.20;;;;;;5071102;28;20096;-61
2023/04/17 03:39:16;;;;;;;6.35;3.60;;;9.60;75.30;;;;;;5064372;28;20652;-61
2023/04/17 03:41:42;;;;;;;6.95;4.00;;;9.60;75.20;;;;;;5071060;28;20368;-61
2023/04/17 03:44:08;;;;;;;7.32;3.95;;;9.50;75.00;;;;;;5066466;28;20048;-62
2023/04/17 03:46:34;;;;;;;6.97;4.53;;;9.50;74.80;;;;;;5075660;28;20040;-61
2023/04/17 03:48:59;;;;;;;6.80;4.28;;;9.50;75.10;;;;;;5075742;28;20029;-61
2023/04/17 03:51:26;;;;;;;7.97;3.95;;;9.50;75.10;;;;;;5073168;28;20039;-55
2023/04/17 03:53:52;;;;;;;5.60;3.92;;;9.40;74.90;;;;;;5066941;28;20111;-57
2023/04/17 03:56:18;;;;;;;6.45;4.68;;;9.40;74.60;;;;;;5071999;28;20020;-55
2023/04/17 03:58:44;;;;;;;6.28;4.15;;;9.40;74.80;;;;;;5070971;28;20035;-57
2023/04/17 04:01:09;;;;;;;7.90;4.28;;;9.30;75.10;;;;;;5067767;28;20490;-54
2023/04/17 04:03:36;;;;;;;6.00;4.10;;;9.30;75.00;;;;;;5070079;28;20032;-57
2023/04/17 04:06:02;;;;;;;9.95;5.70;;;9.30;75.00;;;;;;5071476;28;20036;-58
2023/04/17 04:08:27;;;;;;;7.18;4.72;;;9.30;74.90;;;;;;5070131;28;20141;-56
2023/04/17 04:10:53;;;;;;;7.88;4.00;;;9.30;74.70;;;;;;5070970;28;20044;-61
2023/04/17 04:13:19;;;;;;;8.90;4.47;;;9.30;74.90;;;;;;5076533;28;20098;-61
2023/04/17 04:15:44;;;;;;;5.85;3.97;;;9.30;74.50;;;;;;5074516;28;20032;-62
2023/04/17 04:18:10;;;;;;;5.85;4.18;;;9.20;74.00;;;;;;5074775;28;20395;-61
2023/04/17 04:20:36;;;;;;;5.95;4.28;;;9.30;74.10;;;;;;5075132;28;20705;-61
2023/04/17 04:23:03;;;;;;;7.28;4.90;;;9.20;73.80;;;;;;5078678;28;20025;-60
2023/04/17 04:25:29;;;;;;;7.07;4.75;;;9.30;73.50;;;;;;5063180;28;20025;-61
2023/04/17 04:27:55;;;;;;;9.50;4.95;;;9.30;73.60;;;;;;5064208;28;20094;-61
2023/04/17 04:30:24;;;;;;;6.35;4.85;;;9.30;73.60;;;;;;5063887;28;20024;-62
2023/04/17 04:32:50;;;;;;;7.05;5.07;;;9.30;73.80;;;;;;5064537;28;20361;-61
2023/04/17 04:35:16;;;;;;;7.78;5.10;;;9.30;74.20;;;;;;5066185;28;20069;-62
2023/04/17 04:37:45;;;;;;;6.53;4.50;;;9.30;74.00;;;;;;5068227;28;20040;-61
2023/04/17 04:40:13;;;;;;;5.55;4.40;;;9.20;73.70;;;;;;5067490;28;20083;-61
2023/04/17 04:42:40;;;;;;;7.30;4.68;;;9.30;73.70;;;;;;5066049;28;20035;-61
2023/04/17 04:45:07;;;;;;;6.63;4.57;;;9.30;73.10;;;;;;5062014;28;20029;-61
2023/04/17 04:47:33;;;;;;;9.57;5.07;;;9.20;73.30;;;;;;5066601;28;20541;-61
2023/04/17 04:49:59;;;;;;;5.95;4.47;;;9.20;73.00;;;;;;5067432;28;20025;-62
2023/04/17 04:52:25;;;;;;;6.90;4.18;;;9.20;73.50;;;;;;5066613;28;20028;-62
2023/04/17 04:54:51;;;;;;;8.13;4.90;;;9.20;73.00;;;;;;5059859;28;20012;-61
2023/04/17 04:57:17;;;;;;;5.75;4.15;;;9.20;73.30;;;;;;5065705;28;20032;-61
2023/04/17 04:59:42;;;;;;;7.07;4.20;;;9.20;73.20;;;;;;5068432;28;20036;-62
2023/04/17 05:02:08;;;;;;;5.72;4.07;;;9.20;73.10;;;;;;5064065;28;20086;-61
2023/04/17 05:04:34;;;;;;;5.47;4.07;;;9.30;72.80;;;;;;5068307;28;20025;-62
2023/04/17 05:06:59;;;;;;;6.00;4.03;;;9.30;72.80;;;;;;5060198;28;20037;-62
2023/04/17 05:09:25;;;;;;;5.88;4.10;;;9.30;73.20;;;;;;5059363;28;20033;-63
2023/04/17 05:11:53;;;;;;;6.18;4.35;;;9.40;72.90;;;;;;5069272;28;20375;-61
2023/04/17 05:14:19;;;;;;;6.20;4.30;;;9.30;72.40;;;;;;5065978;28;20033;-62
2023/04/17 05:16:45;;;;;;;5.75;4.10;;;9.40;72.50;;;;;;5062850;28;20051;-61
2023/04/17 05:19:11;;;;;;;5.80;4.10;;;9.40;72.40;;;;;;5063280;28;20033;-62
2023/04/17 05:21:36;;;;;;;7.25;4.40;;;9.40;72.50;;;;;;5067238;28;20082;-61
2023/04/17 05:24:02;;;;;;;5.60;4.53;;;9.40;72.40;;;;;;5066140;28;20124;-60
2023/04/17 05:26:27;;;;;;;6.68;4.00;;;9.50;72.20;;;;;;5064643;28;20024;-61
2023/04/17 05:28:53;;;;;;;7.03;3.80;;;9.40;72.40;;;;;;5062138;28;20120;-60
2023/04/17 05:31:19;;;;;;;5.65;3.70;;;9.50;72.30;;;;;;5067585;28;20154;-60
2023/04/17 05:33:45;;;;;;;5.60;3.67;;;9.50;71.90;;;;;;5058789;28;20056;-60
2023/04/17 05:36:10;;;;;;;6.97;4.07;;;9.60;71.90;;;;;;5065393;28;20809;-62
2023/04/17 05:38:36;;;;;;;5.72;4.20;;;9.60;71.80;;;;;;5066918;28;20025;-62
2023/04/17 05:41:02;;;;;;;7.25;3.75;;;9.60;71.80;;;;;;5064708;28;20028;-61
2023/04/17 05:43:27;;;;;;;5.10;3.63;;;9.70;71.60;;;;;;5065702;28;20033;-62
2023/04/17 05:45:53;;;;;;;4.68;3.83;;;9.70;71.90;;;;;;5065323;28;20862;-61
2023/04/17 05:48:19;;;;;;;5.95;3.95;;;9.80;71.50;;;;;;5060369;28;20045;-60
2023/04/17 05:50:44;;;;;;;8.68;3.65;;;9.80;71.10;;;;;;5068716;28;20416;-62
2023/04/17 05:53:10;;;;;;;6.18;3.72;;;9.80;70.80;;;;;;5063603;28;20119;-62
2023/04/17 05:55:36;;;;;;;4.93;3.40;;;9.90;70.40;;;;;;5062680;28;20490;-63
2023/04/17 05:58:01;;;;;;;5.38;3.92;;;9.90;70.20;;;;;;5065870;28;20056;-62
2023/04/17 06:00:27;;;;;;;6.82;3.65;;;9.90;69.90;;;;;;5063203;28;20028;-61
2023/04/17 06:02:53;;;;;;;6.55;3.45;;;9.90;70.10;;;;;;5062424;28;20024;-61
2023/04/17 06:05:20;;;;;;;7.25;4.00;;;9.90;70.20;;;;;;5060644;28;20087;-61
2023/04/17 06:07:46;;;;;;;4.45;3.35;;;10.00;69.50;;;;;;5065515;28;20046;-61
2023/04/17 06:10:11;;;;;;;4.55;3.50;;;10.00;69.70;;;;;;5061807;28;20033;-61
2023/04/17 06:12:37;;;;;;;5.45;3.55;;;10.00;70.10;;;;;;5064260;28;20100;-62
2023/04/17 06:15:04;;;;;;;4.38;3.15;;;10.00;69.80;;;;;;5063573;28;20033;-61
2023/04/17 06:17:30;;;;;;;4.65;3.30;;;10.00;69.50;;;;;;5064301;28;20505;-62
2023/04/17 06:19:56;;;;;;;5.40;3.15;;;10.00;69.40;;;;;;5061532;28;20432;-61
2023/04/17 06:22:21;;;;;;;6.25;3.45;;;10.00;68.90;;;;;;5061386;28;20032;-61
2023/04/17 06:24:47;;;;;;;5.72;3.50;;;10.00;68.90;;;;;;5067323;28;20442;-61
2023/04/17 06:27:13;;;;;;;5.53;3.10;;;10.10;69.20;;;;;;5056693;28;20060;-57
2023/04/17 06:29:39;;;;;;;5.03;3.47;;;10.00;68.80;;;;;;5062345;28;20059;-57
2023/04/17 06:32:05;;;;;;;4.80;3.17;;;10.10;68.00;;;;;;5061506;28;20029;-61
2023/04/17 06:34:31;;;;;;;4.25;3.35;;;10.10;68.10;;;;;;5059868;28;20470;-62
2023/04/17 06:36:58;;;;;;;4.10;3.33;;;10.00;68.20;;;;;;5062951;28;20448;-62
2023/04/17 06:39:23;;;;;;;4.80;3.28;;;10.10;68.80;;;;;;5062287;28;20036;-60
2023/04/17 06:41:49;;;;;;;6.78;3.22;;;10.20;68.70;;;;;;5064438;28;20085;-62
2023/04/17 06:44:15;;;;;;;3.53;3.08;;;10.20;67.80;;;;;;5063263;28;20028;-62
2023/04/17 06:46:41;;;;;;;4.13;3.30;;;10.20;67.70;;;;;;5063517;28;20025;-61
2023/04/17 06:49:06;;;;;;;4.47;3.13;;;10.20;67.90;;;;;;5061823;28;20376;-63
2023/04/17 06:51:32;;;;;;;3.75;3.03;;;10.30;67.80;;;;;;5065503;28;20043;-63
2023/04/17 06:53:58;;;;;;;3.92;2.80;;;10.30;67.80;;;;;;5063507;28;20020;-62
2023/04/17 06:56:24;;;;;;;6.00;3.40;;;10.40;67.50;;;;;;5058749;28;20028;-63
2023/04/17 06:58:52;;;;;;;3.03;2.72;;;10.40;67.30;;;;;;5063320;28;20060;-62
2023/04/17 07:01:19;;;;;;;4.43;3.33;;;10.50;66.70;;;;;;5057273;28;20071;-63
2023/04/17 07:03:45;;;;;;;4.57;2.92;;;10.50;66.50;;;;;;5064684;28;20025;-61
2023/04/17 07:06:11;;;;;;;6.22;2.85;;;10.60;67.20;;;;;;5056246;28;20036;-61
2023/04/17 07:08:36;;;;;;;3.25;2.90;;;10.70;67.30;;;;;;5062085;28;20036;-62
2023/04/17 07:11:02;;;;;;;4.43;3.17;;;10.80;67.30;;;;;;5061104;28;20534;-61
2023/04/17 07:13:30;;;;;;;4.85;2.80;;;11.00;67.30;;;;;;5065176;28;20035;-62
2023/04/17 07:15:57;;;;;;;5.43;3.40;;;11.10;66.60;;;;;;5062192;28;20119;-61
2023/04/17 07:18:24;;;;;;;7.35;3.08;;;11.20;66.20;;;;;;5060455;28;20032;-62
2023/04/17 07:20:50;;;;;;;5.55;3.20;;;11.20;65.70;;;;;;5062101;28;20021;-61
2023/04/17 07:23:16;;;;;;;5.43;3.00;;;11.20;65.30;;;;;;5068937;28;20036;-62
2023/04/17 07:25:44;;;;;;;4.80;2.88;;;11.30;65.60;;;;;;5065028;28;20064;-62
2023/04/17 07:28:10;;;;;;;4.55;3.10;;;11.20;65.30;;;;;;5061294;28;20111;-58
2023/04/17 07:30:36;;;;;;;3.30;2.72;;;11.20;65.50;;;;;;5059730;28;20056;-58
2023/04/17 07:33:01;;;;;;;4.32;2.80;;;11.20;65.80;;;;;;5059372;28;20041;-57
2023/04/17 07:35:27;;;;;;;3.80;2.60;;;11.30;65.80;;;;;;5062256;28;20047;-58
2023/04/17 07:37:54;;;;;;;4.70;2.92;;;11.30;65.90;;;;;;5063491;28;20397;-61
2023/04/17 07:40:20;;;;;;;3.13;2.58;;;11.40;65.90;;;;;;5063368;28;20077;-61
2023/04/17 07:42:46;;;;;;;2.53;2.33;;;11.40;65.80;;;;;;5061734;28;20700;-63
2023/04/17 07:45:11;;;;;;;6.28;2.65;;;11.50;65.60;;;;;;5060800;28;20040;-62
2023/04/17 07:47:37;;;;;;;4.03;2.55;;;11.50;65.60;;;;;;5068667;28;20047;-62
2023/04/17 07:50:03;;;;;;;2.50;2.30;;;11.50;65.40;;;;;;5083080;28;20020;-62
2023/04/17 07:52:29;;;;;;;3.13;2.72;;;11.50;65.30;;;;;;5075204;28;20036;-62
2023/04/17 07:54:55;;;;;;;3.42;2.65;;;11.60;65.70;;;;;;5070703;28;20359;-62
2023/04/17 07:57:22;;;;;;;4.15;2.58;;;11.60;65.40;;;;;;5069403;28;20115;-62
2023/04/17 07:59:47;;;;;;;3.25;2.72;;;11.60;64.90;;;;;;5079892;28;20025;-62
2023/04/17 08:02:14;;;;;;;3.88;2.72;;;11.50;64.90;;;;;;5073290;28;20043;-61
2023/04/17 08:04:40;;;;;;;3.10;2.80;;;11.50;65.00;;;;;;5073965;28;20024;-62
2023/04/17 08:07:09;;;;;;;4.00;2.55;;;11.50;65.40;;;;;;5066625;28;20455;-61
2023/04/17 08:09:36;;;;;;;4.65;2.97;;;11.40;65.20;;;;;;5075567;28;20040;-61
2023/04/17 08:12:01;;;;;;;6.03;2.88;;;11.40;65.30;;;;;;5073338;28;20047;-61
2023/04/17 08:14:27;;;;;;;3.28;2.47;;;11.40;65.10;;;;;;5079048;28;20491;-62
2023/04/17 08:16:53;;;;;;;6.18;2.70;;;11.40;65.30;;;;;;5073442;28;20043;-62
2023/04/17 08:19:19;;;;;;;3.63;2.80;;;11.30;65.10;;;;;;5072295;28;20033;-62
2023/04/17 08:21:49;;;;;;;4.00;2.75;;;11.30;65.30;;;;;;5074210;28;20166;-61
2023/04/17 08:24:15;;;;;;;2.90;2.60;;;11.30;65.50;;;;;;5072895;28;20463;-62
2023/04/17 08:26:41;;;;;;;4.60;2.55;;;11.30;65.00;;;;;;5064604;28;20031;-62
2023/04/17 08:29:07;;;;;;;3.03;2.70;;;11.30;64.80;;;;;;5069055;28;20120;-61
2023/04/17 08:31:35;;;;;;;4.53;2.70;;;11.30;65.20;;;;;;5070771;28;20027;-64
2023/04/17 08:34:03;;;;;;;3.08;2.50;;;11.30;65.30;;;;;;5076803;28;20027;-63
2023/04/17 08:36:30;;;;;;;5.80;2.75;;;11.30;65.30;;;;;;5067889;28;20024;-63
2023/04/17 08:38:56;;;;;;;3.15;2.50;;;11.40;65.80;;;;;;5066179;28;20032;-63
2023/04/17 08:41:25;;;;;;;3.80;2.17;;;11.40;65.70;;;;;;5073228;28;20418;-64
2023/04/17 08:43:52;;;;;;;3.10;2.70;;;11.40;65.40;;;;;;5075909;28;20122;-64
2023/04/17 08:46:20;;;;;;;5.25;2.80;;;11.40;65.50;;;;;;5071077;28;20039;-63
2023/04/17 08:48:46;;;;;;;3.67;2.67;;;11.40;65.40;;;;;;5077635;28;20040;-63
2023/04/17 08:51:12;;;;;;;3.22;2.65;;;11.50;65.40;;;;;;5072191;28;20036;-64
2023/04/17 08:53:38;;;;;;;2.90;2.40;;;11.40;65.40;;;;;;5070696;28;20032;-64
2023/04/17 08:56:05;;;;;;;3.80;2.70;;;11.40;65.50;;;;;;5065912;28;20024;-62
2023/04/17 08:58:35;;;;;;;3.38;2.80;;;11.40;65.70;;;;;;5066501;28;20043;-61
2023/04/17 09:01:11;;;;;;;2.95;2.65;;;11.40;65.90;;;;;;5057556;28;20052;-56
2023/04/17 09:03:45;;;;;;;4.22;2.60;;;11.40;65.90;;;;;;5069682;28;20064;-56
2023/04/17 09:06:12;;;;;;;3.80;2.70;;;11.50;66.10;;;;;;5065225;28;20031;-63
2023/04/17 09:08:39;;;;;;;2.80;2.35;;;11.50;66.10;;;;;;5059470;28;20163;-63
2023/04/17 09:11:15;;;;;;;2.97;2.47;;;11.50;65.70;;;;;;5072096;28;20033;-62
2023/04/17 09:13:41;;;;;;;3.35;2.70;;;11.50;65.60;;;;;;5056765;28;20355;-62
2023/04/17 09:16:09;;;;;;;4.72;3.20;;;11.50;65.80;;;;;;5073143;28;20032;-57
2023/04/17 09:18:36;;;;;;;3.35;2.60;;;11.50;66.10;;;;;;5073508;28;20109;-54
2023/04/17 09:21:03;;;;;;;3.95;3.17;;;11.50;66.20;;;;;;5073065;28;20024;-55
2023/04/17 09:23:31;;;;;;;4.30;2.95;;;11.50;66.10;;;;;;5073669;28;20031;-57
2023/04/17 09:26:06;;;;;;;3.25;2.63;;;11.60;65.70;;;;;;5071882;28;20024;-57
2023/04/17 09:28:38;;;;;;;4.30;3.05;;;11.60;65.50;;;;;;5073740;28;20409;-54
2023/04/17 09:31:25;;;;;;;;;;;11.60;65.40;;;;;;5073104;28;20038;-55
2023/04/17 09:34:03;;;;;;;3.67;3.10;;;11.50;65.10;;;;;;5070168;28;19911;-55
2023/04/17 09:36:31;;;;;;;4.15;3.13;;;11.50;65.40;;;;;;5070407;28;20471;-55
2023/04/17 09:38:59;;;;;;;5.40;3.30;;;11.60;65.50;;;;;;5064587;28;20056;-54
2023/04/17 09:41:37;;;;;;;4.82;3.10;;;11.50;65.30;;;;;;5071806;28;20032;-57
2023/04/17 09:44:08;;;;;;;5.57;3.30;;;11.50;65.40;;;;;;5073433;28;20029;-57
2023/04/17 09:46:36;;;;;;;5.25;3.17;;;11.50;65.20;;;;;;5079320;28;20028;-55
2023/04/17 09:49:25;;;;;;;3.67;3.05;;;11.50;65.10;;;;;;5076816;28;20037;-59
2023/04/17 09:51:52;;;;;;;5.03;3.70;;;11.50;65.10;;;;;;5074240;28;20083;-57
2023/04/17 09:54:21;;;;;;;5.03;3.35;;;11.50;65.10;;;;;;5072840;28;20066;-54
2023/04/17 09:56:48;;;;;;;6.13;3.28;;;11.50;65.00;;;;;;5070276;28;20035;-54
2023/04/17 09:59:15;;;;;;;4.25;3.28;;;11.50;65.00;;;;;;5070799;28;20071;-54
2023/04/17 10:01:41;;;;;;;7.43;3.70;;;11.50;65.00;;;;;;5073393;28;20029;-53
2023/04/17 10:04:07;;;;;;;4.68;3.63;;;11.60;65.40;;;;;;5055265;28;20039;-56
2023/04/17 10:06:34;;;;;;;5.15;3.38;;;11.60;65.40;;;;;;5072339;28;20028;-55
2023/04/17 10:09:02;;;;;;;4.28;3.15;;;11.70;65.50;;;;;;5071171;28;20039;-54
2023/04/17 10:11:33;;;;;;;4.40;3.35;;;11.80;65.30;;;;;;5071554;28;20081;-56
2023/04/17 10:14:18;;;;;;;4.05;3.13;;;11.80;65.50;;;;;;5066256;28;20033;-57
2023/04/17 10:16:45;;;;;;;4.30;3.28;;;11.90;65.40;;;;;;5053745;28;20035;-53
2023/04/17 10:19:29;;;;;;;5.05;3.22;;;12.00;65.00;;;;;;5053931;28;20403;-56
2023/04/17 10:22:14;;;;;;;5.72;3.80;;;12.10;65.00;;;;;;5076591;28;20028;-58
2023/04/17 10:24:46;;;;;;;5.15;3.33;;;12.10;65.00;;;;;;5071814;28;20048;-56
2023/04/17 10:27:26;;;;;;;3.67;3.00;;;12.10;65.00;;;;;;5070876;28;20139;-55
2023/04/17 10:30:03;;;;;;;4.10;2.95;;;12.20;65.00;;;;;;5073794;28;20037;-57
2023/04/17 10:32:30;;;;;;;3.47;3.17;;;12.20;65.10;;;;;;5071070;28;20071;-53
2023/04/17 10:34:57;;;;;;;4.35;3.10;;;12.20;65.00;;;;;;5071728;28;20055;-54
2023/04/17 10:37:51;;;;;;;4.45;3.53;;;12.20;64.80;;;;;;5060281;28;20040;-55
2023/04/17 10:40:20;;;;;;;5.13;3.45;;;12.20;65.30;;;;;;5071759;28;20021;-58
2023/04/17 10:43:19;;;;;;;4.22;3.08;;;12.30;65.90;;;;;;5070258;28;20162;-58
2023/04/17 10:46:00;;;;;;;3.28;2.70;;;12.40;65.80;;;;;;5059959;28;20017;-55
2023/04/17 10:48:45;;;;;;;3.80;2.88;;;12.50;65.50;;;;;;5066712;28;20075;-58
2023/04/17 10:51:20;;;;;;;3.85;3.28;;;12.50;65.10;;;;;;5062701;28;20472;-59
2023/04/17 10:54:08;;;;;;;2.97;2.67;;;12.60;65.10;;;;;;5059659;28;20059;-59
2023/04/17 10:56:39;;;;;;;4.13;2.88;;;12.60;65.10;;;;;;5062480;28;20035;-56
2023/04/17 10:59:13;;;;;;;3.13;2.58;;;12.70;65.20;;;;;;5059041;28;20033;-56
2023/04/17 11:01:56;;;;;;;3.20;2.70;;;12.70;65.10;;;;;;5061552;28;20108;-61
2023/04/17 11:04:30;;;;;;;3.08;2.58;;;12.80;65.00;;;;;;5061931;28;20507;-62
2023/04/17 11:06:56;;;;;;;3.45;2.67;;;12.80;64.90;;;;;;5061946;28;20032;-61
2023/04/17 11:09:26;;;;;;;3.30;2.67;;;12.90;64.90;;;;;;5061434;28;20052;-61
2023/04/17 11:11:53;;;;;;;3.17;2.78;;;12.90;64.70;;;;;;5065796;28;20041;-62
2023/04/17 11:14:21;;;;;;;3.55;2.55;;;13.00;64.70;;;;;;5062356;28;20033;-62
2023/04/17 11:16:48;;;;;;;4.35;2.78;;;13.00;64.60;;;;;;5061370;28;20040;-61
2023/04/17 11:19:25;;;;;;;3.53;2.92;;;13.00;64.70;;;;;;5059232;28;20438;-61
2023/04/17 11:21:52;;;;;;;2.47;2.28;;;13.10;64.50;;;;;;5060878;28;20121;-62
2023/04/17 11:24:26;;;;;;;3.83;2.70;;;13.10;64.60;;;;;;5071448;28;20036;-61
2023/04/17 11:26:52;;;;;;;2.65;2.30;;;13.20;64.50;;;;;;5043806;28;20048;-60
2023/04/17 11:29:20;;;;;;;2.65;2.30;;;13.20;64.90;;;;;;5059850;28;20045;-61
2023/04/17 11:31:47;;;;;;;2.53;2.33;;;13.30;64.80;;;;;;5062166;28;20029;-57
2023/04/17 11:34:14;;;;;;;3.47;2.70;;;13.30;64.20;;;;;;5057743;28;20025;-55
2023/04/17 11:36:51;;;;;;;4.68;2.83;;;13.30;64.20;;;;;;5059988;28;20056;-52
2023/04/17 11:39:17;;;;;;;2.47;2.28;;;13.30;63.90;;;;;;5065983;28;20117;-58
2023/04/17 11:41:45;;;;;;;2.15;1.95;;;13.30;63.70;;;;;;5061922;28;20360;-56
2023/04/17 11:44:15;;;;;;;2.45;2.05;;;13.30;63.40;;;;;;5060938;28;20024;-55
2023/04/17 11:46:41;;;;;;;2.30;2.13;;;13.30;63.30;;;;;;5062721;28;20028;-56
2023/04/17 11:49:07;;;;;;;2.53;2.15;;;13.30;62.90;;;;;;5062580;28;20028;-55
2023/04/17 11:51:33;;;;;;;2.75;2.28;;;13.30;63.00;;;;;;5064163;28;20498;-57
2023/04/17 11:53:59;;;;;;;3.58;2.08;;;13.40;62.70;;;;;;5058723;28;20029;-56
2023/04/17 11:56:29;;;;;;;2.25;2.05;;;13.40;62.30;;;;;;5061912;28;20032;-56
2023/04/17 11:58:59;;;;;;;1.92;1.77;;;13.40;62.10;;;;;;5062717;28;20047;-54
2023/04/17 12:01:26;;;;;;;2.17;1.92;;;13.40;61.60;;;;;;5061785;28;20029;-54
2023/04/17 12:03:54;;;;;;;1.92;1.65;;;13.50;61.30;;;;;;5059373;28;20035;-56
2023/04/17 12:06:21;;;;;;;1.98;1.77;;;13.50;61.10;;;;;;5063962;28;20029;-62
2023/04/17 12:08:54;;;;;;;2.10;1.77;;;13.60;60.90;;;;;;5059019;28;20032;-62
2023/04/17 12:11:31;;;;;;;1.70;1.60;;;13.60;60.70;;;;;;5059934;28;20183;-58
2023/04/17 12:13:58;;;;;;;2.10;1.90;;;13.70;60.80;;;;;;5064988;28;20486;-57
2023/04/17 12:16:25;;;;;;;2.17;1.95;;;13.80;60.70;;;;;;5067374;28;20033;-57
2023/04/17 12:18:51;;;;;;;2.70;1.67;;;13.80;60.40;;;;;;5061096;28;20056;-57
2023/04/17 12:21:19;;;;;;;3.20;2.20;;;13.90;60.50;;;;;;5068178;28;20063;-58
2023/04/17 12:23:44;;;;;;;3.47;2.00;;;13.90;60.20;;;;;;5063115;28;20348;-57
2023/04/17 12:26:10;;;;;;;1.92;1.80;;;13.90;59.90;;;;;;5063290;28;20044;-62
2023/04/17 12:28:36;;;;;;;1.92;1.73;;;14.00;60.10;;;;;;5058836;28;20041;-61
2023/04/17 12:31:03;;;;;;;2.00;1.90;;;14.00;59.90;;;;;;5063599;28;20028;-62
2023/04/17 12:33:29;;;;;;;2.03;1.83;;;14.10;60.10;;;;;;5063999;28;20048;-62
2023/04/17 12:35:55;;;;;;;4.90;2.70;;;14.10;59.90;;;;;;5062432;28;20041;-61
2023/04/17 12:38:22;;;;;;;3.30;2.10;;;14.10;59.90;;;;;;5072815;28;20021;-61
2023/04/17 12:40:51;;;;;;;2.42;1.90;;;14.20;60.00;;;;;;5063646;28;20028;-61
2023/04/17 12:43:17;;;;;;;1.70;1.60;;;14.20;60.00;;;;;;5061876;28;20044;-63
2023/04/17 12:45:44;;;;;;;1.65;1.55;;;14.30;60.00;;;;;;5068454;28;20028;-62
2023/04/17 12:48:11;;;;;;;1.90;1.73;;;14.40;60.00;;;;;;5070319;28;20033;-63
2023/04/17 12:50:41;;;;;;;1.45;1.35;;;14.50;60.00;;;;;;5064370;28;20032;-63